Latest Weather Observations for Snowtown

IDS60801

Issued at 1:01 pm CST Tuesday 22 August 2017 (issued every 30 minutes, with the page automatically refreshed every 10 minutes)

About weather observations | Map of weather stations | Latest weather observations for SA | Other Formats
Station Details ID: 021133 Name: RAYVILLE PARK Lat: -33.77 Lon: 138.22 Height: 109.1 m
Data from the previous 72 hours. | See also: Recent months at Snowtown
Date/Time
CST
Temp
°C
App
Temp
°C
Dew
Point
°C
Rel
Hum
%
Delta-T
°C
Wind Press
QNH
hPa
Press
MSL
hPa
Rain since
9am
mm
Dir  Spd
km/h
Gust
km/h
Spd
kts
Gust
kts
22/01:00pm 14.2 12.0 7.9 66 3.1 SSW 9 15 5 8 1021.7 1021.9 0.2
22/12:30pm 13.9 11.7 9.3 74 2.3 SW 11 17 6 9 1022.0 1022.2 0.2
22/12:00pm 13.2 10.4 8.5 73 2.3 WSW 13 17 7 9 1022.2 1022.4 0.2
22/11:30am 12.7 12.2 9.3 80 1.7 W 2 7 1 4 1022.8 1022.9 0.2
22/11:00am 11.5 8.6 9.6 88 1.0 W 15 20 8 11 1023.1 1023.2 0.0
22/10:30am 12.9 11.3 8.0 72 2.4 WSW 6 9 3 5 1023.0 1023.1 0.0
22/10:00am 12.6 11.0 8.1 74 2.2 SSW 6 15 3 8 1023.2 1023.3 0.0
22/09:30am 12.1 10.6 8.6 79 1.7 SSE 6 11 3 6 1023.1 1023.2 0.0
22/09:00am 11.7 9.4 9.1 84 1.3 WSW 11 15 6 8 1023.1 1023.2 1.2
22/08:30am 10.8 9.3 9.2 90 0.8 W 7 11 4 6 1022.9 1023.0 1.2
22/08:00am 10.0 6.4 8.4 90 0.8 WSW 17 26 9 14 1022.6 1022.7 1.2
22/07:30am 9.4 9.0 8.2 92 0.6 CALM 0 0 0 0 1022.1 1022.3 1.2
22/07:00am 9.3 7.6 7.7 90 0.8 SSW 6 11 3 6 1021.6 1021.8 1.2
22/06:30am 9.1 8.6 7.9 92 0.6 CALM 0 0 0 0 1021.3 1021.5 1.2
22/06:00am 9.2 7.0 8.0 92 0.6 SSW 9 13 5 7 1021.1 1021.3 1.2
22/05:30am 8.9 7.1 8.1 95 0.4 SW 7 9 4 5 1020.9 1021.1 1.2
22/05:00am 8.6 7.0 8.0 96 0.3 SW 6 7 3 4 1020.4 1020.6 1.2
22/04:30am 8.2 5.9 7.6 96 0.3 SW 9 11 5 6 1020.1 1020.3 1.2
22/04:00am 7.5 5.5 6.9 96 0.3 SW 7 9 4 5 1019.7 1019.8 1.2
22/03:30am 8.3 6.1 7.7 96 0.3 SSW 9 11 5 6 1019.4 1019.5 1.2
22/03:00am 8.3 5.7 7.7 96 0.3 SW 11 13 6 7 1019.4 1019.5 1.2
22/02:30am 7.7 4.9 7.1 96 0.3 SW 11 13 6 7 1019.4 1019.5 1.2
22/02:00am 8.6 6.8 8.0 96 0.3 SSE 7 9 4 5 1019.3 1019.4 1.2
22/01:30am 9.1 8.8 8.5 96 0.3 CALM 0 0 0 0 1019.5 1019.6 1.2
22/01:00am 9.3 9.0 8.7 96 0.3 CALM 0 0 0 0 1019.6 1019.7 1.2
22/12:30am 9.3 7.6 8.5 95 0.4 S 7 11 4 6 1019.6 1019.7 1.2
22/12:00am 9.4 8.4 8.8 96 0.3 SW 4 7 2 4 1019.5 1019.6 1.2
 
Date/Time
CST
Temp
°C
App
Temp
°C
Dew
Point
°C
Rel
Hum
%
Delta-T
°C
Wind Press
QNH
hPa
Press
MSL
hPa
Rain since
9am
mm
Dir  Spd
km/h
Gust
km/h
Spd
kts
Gust
kts
21/11:30pm 8.9 8.5 8.3 96 0.3 CALM 0 0 0 0 1019.5 1019.6 1.2
21/11:00pm 8.8 8.4 8.2 96 0.3 CALM 0 7 0 4 1019.3 1019.4 1.2
21/10:30pm 8.7 6.6 8.3 97 0.2 SW 9 9 5 5 1019.4 1019.5 1.2
21/10:00pm 8.2 7.3 7.6 96 0.3 SW 2 7 1 4 1019.2 1019.3 1.2
21/09:30pm 7.1 5.0 6.5 96 0.3 SW 7 9 4 5 1018.9 1019.0 1.2
21/09:00pm 6.9 6.0 6.0 94 0.4 CALM 0 0 0 0 1018.5 1018.6 1.2
21/08:30pm 8.1 6.1 7.3 95 0.4 SW 7 9 4 5 1018.4 1018.5 1.2
21/08:00pm 7.3 5.4 6.6 95 0.3 SW 6 7 3 4 1018.1 1018.2 1.2
21/07:30pm 7.5 6.7 6.6 94 0.4 CALM 0 0 0 0 1017.5 1017.6 1.2
21/07:00pm 7.8 5.4 6.9 94 0.4 SW 9 13 5 7 1017.3 1017.4 1.2
21/06:30pm 8.1 5.7 6.9 92 0.6 SW 9 13 5 7 1016.5 1016.6 1.2
21/06:00pm 9.5 6.2 7.9 90 0.8 SW 15 19 8 10 1016.0 1016.1 1.2
21/05:30pm 11.0 6.9 8.8 86 1.1 SSW 20 28 11 15 1015.3 1015.4 1.2
21/05:00pm 11.8 8.1 9.5 86 1.2 SSW 19 30 10 16 1014.6 1014.7 1.2
21/04:30pm 13.3 9.4 9.4 77 2.0 SW 20 30 11 16 1013.8 1013.9 1.2
21/04:00pm 13.7 8.8 9.9 78 2.0 SW 26 35 14 19 1013.1 1013.2 1.2
21/03:30pm 15.0 9.3 11.0 77 2.1 WSW 32 43 17 23 1012.3 1012.5 1.2
21/03:00pm 15.5 9.8 11.3 76 2.3 WSW 32 43 17 23 1011.5 1011.6 1.2
21/02:30pm 15.7 10.3 12.1 79 2.0 WSW 32 46 17 25 1011.0 1011.1 1.2
21/02:03pm 15.2 10.2 12.3 83 1.6 WSW 30 48 16 26 1010.5 1010.6 1.2
21/02:00pm 15.3 10.9 12.8 85 1.4 WSW 28 41 15 22 1010.4 1010.5 1.2
21/01:30pm 15.0 10.0 12.1 83 1.6 WSW 30 44 16 24 1009.6 1009.7 1.2
21/01:00pm 14.4 10.2 12.4 88 1.1 WSW 26 35 14 19 1009.7 1009.8 1.2
21/12:30pm 14.4 11.5 13.0 91 0.8 W 20 35 11 19 1009.6 1009.7 1.0
21/12:00pm 13.8 9.9 12.0 89 1.0 WNW 24 33 13 18 1009.7 1009.8 1.0
21/11:30am 12.8 8.4 11.7 93 0.6 WNW 26 37 14 20 1009.6 1009.7 1.0
21/11:00am 12.0 7.4 11.1 94 0.5 NW 26 39 14 21 1009.6 1009.7 1.0
21/10:30am 11.5 6.4 10.7 95 0.4 NW 28 39 15 21 1009.2 1009.3 0.6
21/10:00am 10.9 6.8 10.1 95 0.4 NW 22 32 12 17 1009.1 1009.2 0.4
21/09:30am 10.4 5.7 9.3 93 0.6 NNW 24 32 13 17 1009.0 1009.1 0.2
21/09:00am 10.1 6.1 9.0 93 0.5 NW 20 32 11 17 1008.8 1008.9 9.2
21/08:30am 9.5 3.8 8.3 92 0.6 NNW 28 39 15 21 1008.7 1008.8 9.2
21/08:00am 7.5 3.8 6.4 93 0.5 N 15 22 8 12 1008.4 1008.5 9.0
21/07:30am 7.4 1.9 5.7 89 0.8 N 24 32 13 17 1008.1 1008.2 8.6
21/07:00am 7.1 1.9 5.4 89 0.8 N 22 28 12 15 1007.7 1007.8 8.6
21/06:30am 9.1 2.9 6.2 82 1.3 N 28 37 15 20 1007.6 1007.7 8.4
21/06:00am 8.6 2.4 4.4 75 1.9 N 26 35 14 19 1007.5 1007.6 8.2
21/05:30am 8.2 2.5 4.8 79 1.5 NNW 24 32 13 17 1007.2 1007.3 8.2
21/05:06am 8.1 0.6 4.5 78 1.6 NNW 33 52 18 28 1007.3 1007.4 8.2
21/05:00am 8.3 0.1 4.9 79 1.5 NNW 37 52 20 28 1007.4 1007.5 8.2
21/04:35am 8.8 2.2 4.2 73 2.0 N 28 46 15 25 1007.3 1007.4 8.0
21/04:30am 8.0 3.0 4.8 80 1.4 N 20 44 11 24 1007.6 1007.7 8.0
21/04:00am 6.1 3.2 4.4 89 0.7 NNE 9 13 5 7 1007.7 1007.8 7.8
21/03:30am 6.2 1.7 4.2 87 0.9 NE 17 20 9 11 1007.7 1007.8 7.2
21/03:00am 6.0 1.0 3.7 85 1.0 NE 19 24 10 13 1008.0 1008.1 7.2
21/02:30am 5.5 0.9 3.8 89 0.7 NNE 17 22 9 12 1008.4 1008.5 7.2
21/02:00am 5.0 0.3 3.3 89 0.7 NNE 17 22 9 12 1008.6 1008.7 7.2
21/01:30am 4.8 -0.2 3.5 91 0.5 NE 19 20 10 11 1009.3 1009.4 7.2
21/01:00am 4.1 -1.2 2.9 92 0.5 NNE 20 24 11 13 1009.9 1010.0 7.2
21/12:30am 5.1 0.0 3.3 88 0.8 NNE 19 24 10 13 1010.6 1010.7 7.2
21/12:00am 6.6 0.6 3.6 81 1.3 N 24 28 13 15 1011.3 1011.4 7.2
 
Date/Time
CST
Temp
°C
App
Temp
°C
Dew
Point
°C
Rel
Hum
%
Delta-T
°C
Wind Press
QNH
hPa
Press
MSL
hPa
Rain since
9am
mm
Dir  Spd
km/h
Gust
km/h
Spd
kts
Gust
kts
20/11:30pm 6.4 1.3 3.9 84 1.1 N 20 28 11 15 1011.8 1011.9 7.2
20/11:00pm 6.2 1.3 4.0 86 0.9 N 19 28 10 15 1012.4 1012.6 7.2
20/10:30pm 6.2 2.1 4.4 88 0.8 N 15 19 8 10 1013.0 1013.1 7.2
20/10:00pm 6.7 2.8 5.5 92 0.5 N 15 19 8 10 1013.2 1013.3 7.2
20/09:30pm 6.7 2.0 5.3 91 0.6 NNE 19 22 10 12 1013.4 1013.5 7.2
20/09:00pm 7.5 2.6 5.3 86 1.0 N 20 24 11 13 1014.0 1014.1 7.2
20/08:30pm 8.3 2.2 4.9 79 1.5 N 26 30 14 16 1014.6 1014.7 7.0
20/08:00pm 7.2 3.0 5.7 90 0.7 N 17 20 9 11 1014.2 1014.3 7.0
20/07:30pm 7.2 2.5 6.0 92 0.5 NNE 20 30 11 16 1013.8 1013.9 7.0
20/07:00pm 7.2 3.8 6.0 92 0.5 NNE 13 20 7 11 1014.1 1014.2 7.0
20/06:30pm 7.1 3.8 6.2 94 0.4 NNE 13 19 7 10 1014.8 1014.9 7.0
20/06:00pm 7.2 4.3 6.3 94 0.4 NNE 11 13 6 7 1014.3 1014.4 6.8
20/05:30pm 7.5 4.1 6.1 91 0.6 NNE 13 17 7 9 1014.5 1014.6 6.4
20/05:00pm 7.6 3.5 6.1 90 0.7 N 17 20 9 11 1014.1 1014.2 5.8
20/04:30pm 7.5 2.9 6.4 93 0.5 NNE 20 26 11 14 1012.6 1012.8 4.8
20/04:00pm 7.5 2.1 6.3 92 0.5 NNE 24 32 13 17 1013.3 1013.4 4.2
20/03:30pm 7.7 1.9 6.2 90 0.7 N 26 32 14 17 1014.7 1014.8 2.6
20/03:00pm 8.2 2.8 6.3 88 0.9 N 24 32 13 17 1015.2 1015.3 1.2
20/02:30pm 9.0 3.1 5.6 79 1.5 NNE 26 35 14 19 1015.5 1015.6 0.4
20/02:00pm 10.1 3.2 4.7 69 2.4 NNE 30 39 16 21 1016.4 1016.5 0.0
20/01:30pm 11.4 3.7 3.2 57 3.6 NNE 33 43 18 23 1016.8 1016.9 0.0
20/01:11pm 11.6 4.9 3.6 58 3.6 NNE 28 46 15 25 1017.2 1017.3 0.0
20/01:00pm 11.4 3.9 3.7 59 3.4 NNE 32 39 17 21 1017.3 1017.4 0.0
20/12:30pm 11.3 3.3 3.6 59 3.4 NNE 35 46 19 25 1018.7 1018.8 0.0
20/12:00pm 11.9 4.4 3.7 57 3.7 NNE 32 44 17 24 1019.6 1019.7 0.0
20/11:30am 11.3 3.7 3.8 60 3.3 NNE 33 44 18 24 1020.8 1021.0 0.0
20/11:00am 11.3 5.3 5.2 66 2.8 N 26 35 14 19 1021.9 1022.1 0.0
20/10:30am 11.3 4.4 4.5 63 3.1 N 30 43 16 23 1021.9 1022.1 0.0
20/10:00am 11.4 6.6 4.4 62 3.2 NNE 19 30 10 16 1021.8 1022.0 0.0
20/09:30am 10.6 6.2 4.9 68 2.6 NNE 17 20 9 11 1022.1 1022.3 0.0
20/09:00am 9.0 4.1 4.2 72 2.1 NNE 19 22 10 12 1022.6 1022.7 0.2
20/08:30am 8.1 3.7 4.5 78 1.6 NE 17 20 9 11 1023.1 1023.2 0.2
20/08:00am 6.8 0.8 3.2 78 1.5 NNE 24 32 13 17 1023.3 1023.4 0.2
20/07:30am 5.4 0.2 2.6 82 1.1 N 19 24 10 13 1023.4 1023.5 0.2
20/07:00am 3.7 -1.3 1.4 85 0.9 NNE 17 22 9 12 1023.2 1023.3 0.2
20/06:30am 4.4 -0.8 2.3 86 0.8 NNE 19 22 10 12 1023.3 1023.4 0.2
20/06:00am 4.6 -0.3 2.3 85 0.9 NNE 17 22 9 12 1023.3 1023.4 0.2
20/05:30am 3.4 -0.8 1.9 90 0.6 N 13 19 7 10 1023.3 1023.4 0.0
20/05:00am 1.6 -2.8 0.3 91 0.5 NNE 13 15 7 8 1023.3 1023.4 0.0
20/04:30am 2.3 -1.2 1.0 91 0.5 N 9 13 5 7 1023.6 1023.7 0.0
20/04:00am 3.1 -0.7 1.6 90 0.6 NNE 11 13 6 7 1023.9 1024.0 0.0
20/03:30am 2.1 -1.4 1.1 93 0.4 S 9 11 5 6 1024.2 1024.3 0.0
20/03:00am 1.3 -3.1 0.4 94 0.3 S 13 15 7 8 1024.5 1024.6 0.0
20/02:30am -0.2 -3.6 -0.9 95 0.2 S 7 11 4 6 1024.7 1024.8 0.0
20/02:00am -0.4 -3.9 -1.1 95 0.2 S 7 7 4 4 1025.3 1025.4 0.0
20/01:30am -0.2 -3.5 -0.9 95 0.2 S 6 7 3 4 1025.5 1025.6 0.0
20/01:00am -0.1 -3.0 -0.8 95 0.2 S 4 6 2 3 1025.6 1025.7 0.0
20/12:30am 0.0 -3.2 -0.8 94 0.3 S 6 7 3 4 1025.8 1025.9 0.0
20/12:00am 0.9 -2.4 0.0 94 0.3 S 7 9 4 5 1026.0 1026.1 0.0
 
Date/Time
CST
Temp
°C
App
Temp
°C
Dew
Point
°C
Rel
Hum
%
Delta-T
°C
Wind Press
QNH
hPa
Press
MSL
hPa
Rain since
9am
mm
Dir  Spd
km/h
Gust
km/h
Spd
kts
Gust
kts
19/11:30pm 1.5 -1.7 0.6 94 0.3 S 7 9 4 5 1026.5 1026.6 0.0
19/11:00pm 2.1 -1.0 1.1 93 0.4 S 7 11 4 6 1026.9 1027.0 0.0
19/10:30pm 2.5 -1.0 1.2 91 0.5 S 9 11 5 6 1027.0 1027.1 0.0
19/10:00pm 4.0 0.7 2.7 91 0.5 S 9 11 5 6 1027.1 1027.2 0.0
19/09:30pm 3.9 0.3 2.7 92 0.5 S 11 15 6 8 1027.2 1027.3 0.0
19/09:00pm 4.0 0.7 2.5 90 0.6 S 9 13 5 7 1027.3 1027.4 0.0
19/08:30pm 4.5 0.9 2.7 88 0.7 S 11 13 6 7 1027.6 1027.8 0.0
19/08:00pm 6.1 2.4 4.4 89 0.7 S 13 17 7 9 1027.6 1027.8 0.0
19/07:30pm 5.1 1.7 3.9 92 0.5 S 11 15 6 8 1027.2 1027.3 0.0
19/07:00pm 5.5 2.1 4.2 91 0.6 S 11 13 6 7 1027.1 1027.2 0.0
19/06:30pm 5.9 2.5 4.2 89 0.7 S 11 13 6 7 1027.1 1027.2 0.0
19/06:00pm 7.7 5.2 4.7 81 1.3 S 7 11 4 6 1027.1 1027.2 0.0
19/05:30pm 10.2 7.0 5.0 70 2.3 SE 11 17 6 9 1027.0 1027.1 0.0
19/05:00pm 12.3 9.6 5.5 63 3.2 SE 9 13 5 7 1027.0 1027.1 0.0
19/04:30pm 13.2 10.6 5.9 61 3.4 SE 9 15 5 8 1026.9 1027.0 0.0
19/04:00pm 13.1 10.1 5.8 61 3.5 SE 11 15 6 8 1026.8 1026.9 0.0
19/03:30pm 14.0 11.8 5.1 55 4.2 SE 6 7 3 4 1027.0 1027.1 0.0
19/03:00pm 13.5 11.0 6.4 62 3.4 SE 9 15 5 8 1027.3 1027.4 0.0
19/02:30pm 13.0 9.8 5.2 59 3.6 ESE 11 15 6 8 1027.5 1027.6 0.0
19/02:00pm 13.9 11.5 4.2 52 4.5 SE 6 15 3 8 1027.9 1028.1 0.0
19/01:30pm 13.7 9.9 4.0 52 4.4 SE 13 17 7 9 1028.1 1028.3 0.0

Other Formats:

Comma delimited format used in spreadsheet applications
http://www.bom.gov.au/fwo/IDS60801/IDS60801.95670.axf

JavaScript Object Notation format (JSON) in row-major order
http://www.bom.gov.au/fwo/IDS60801/IDS60801.95670.json